DAL375 KDCA-KBOS
Flight info
| Callsign | DAL375 |
|---|---|
| Flight time | 1h 3m |
| Altitude | 37000 |
| Route | SOOKI6 SWANN BROSS Q419 JFK ROBUC3 |
| Aircraft | B738/M-SDE2E3FGHIRWXY/LB1 |
Departure
| Time | 2026-05-06 00:34 |
|---|---|
| Airport | Ronald Reagan Washington National Airport (KDCA) |
Arrival
| Time | 2026-05-06 01:38 |
|---|---|
| Airport | Boston Logan International Airport (KBOS) |
| Time | Latitude | Longitude | Altitude | Speed | Heading |
|---|---|---|---|---|---|
| 2026-05-06 00:18 | 38.85862 | -77.04371 | 26 ft | 0 kts | 162° |
| 2026-05-06 00:26 | 38.85879 | -77.04378 | 26 ft | 3 kts | 162° |
| 2026-05-06 00:26 | 38.85901 | -77.04387 | 26 ft | 3 kts | 161° |
| 2026-05-06 00:26 | 38.85904 | -77.04388 | 25 ft | 0 kts | 161° |
| 2026-05-06 00:28 | 38.85904 | -77.04376 | 25 ft | 2 kts | 71° |
| 2026-05-06 00:28 | 38.85907 | -77.04365 | 25 ft | 0 kts | 73° |
| 2026-05-06 00:28 | 38.85908 | -77.04362 | 25 ft | 0 kts | 73° |
| 2026-05-06 00:29 | 38.85909 | -77.04358 | 25 ft | 1 kts | 71° |
| 2026-05-06 00:30 | 38.85909 | -77.04357 | 25 ft | 0 kts | 71° |
| 2026-05-06 00:30 | 38.85913 | -77.04343 | 25 ft | 4 kts | 72° |
| 2026-05-06 00:30 | 38.85916 | -77.04298 | 24 ft | 2 kts | 91° |
| 2026-05-06 00:30 | 38.85916 | -77.04296 | 24 ft | 0 kts | 91° |
| 2026-05-06 00:31 | 38.85916 | -77.04286 | 24 ft | 1 kts | 91° |
| 2026-05-06 00:31 | 38.85916 | -77.04285 | 24 ft | 0 kts | 91° |
| 2026-05-06 00:31 | 38.85915 | -77.04264 | 24 ft | 6 kts | 91° |
| 2026-05-06 00:32 | 38.85925 | -77.04157 | 22 ft | 16 kts | 84° |
| 2026-05-06 00:32 | 38.85933 | -77.04016 | 21 ft | 11 kts | 79° |
| 2026-05-06 00:32 | 38.85972 | -77.03965 | 20 ft | 0 kts | 18° |
| 2026-05-06 00:32 | 38.85976 | -77.03964 | 20 ft | 1 kts | 18° |
| 2026-05-06 00:33 | 38.85987 | -77.03959 | 19 ft | 3 kts | 17° |
| 2026-05-06 00:33 | 38.86048 | -77.03937 | 19 ft | 13 kts | 16° |
| 2026-05-06 00:33 | 38.86068 | -77.03871 | 18 ft | 8 kts | 173° |
| 2026-05-06 00:33 | 38.86058 | -77.03870 | 18 ft | 2 kts | 174° |
| 2026-05-06 00:34 | 38.85770 | -77.03839 | 21 ft | 78 kts | 175° |
| 2026-05-06 00:34 | 38.85002 | -77.03761 | 23 ft | 141 kts | 175° |
| 2026-05-06 00:34 | 38.83963 | -77.03651 | 570 ft | 149 kts | 179° |
| 2026-05-06 00:34 | 38.82972 | -77.03506 | 1322 ft | 149 kts | 176° |
| 2026-05-06 00:35 | 38.81952 | -77.03257 | 2008 ft | 150 kts | 175° |
| 2026-05-06 00:35 | 38.80895 | -77.02981 | 2462 ft | 163 kts | 176° |
| 2026-05-06 00:35 | 38.79759 | -77.02720 | 2983 ft | 171 kts | 177° |
| 2026-05-06 00:35 | 38.78540 | -77.02478 | 3451 ft | 184 kts | 179° |
| 2026-05-06 00:36 | 38.77241 | -77.02223 | 3927 ft | 198 kts | 174° |
| 2026-05-06 00:36 | 38.75923 | -77.01459 | 4325 ft | 228 kts | 148° |
| 2026-05-06 00:36 | 38.75012 | -76.99633 | 4711 ft | 266 kts | 112° |
| 2026-05-06 00:36 | 38.74827 | -76.97195 | 5264 ft | 288 kts | 92° |
| 2026-05-06 00:37 | 38.75037 | -76.94579 | 5865 ft | 302 kts | 80° |
| 2026-05-06 00:37 | 38.75870 | -76.92075 | 6524 ft | 312 kts | 56° |
| 2026-05-06 00:37 | 38.77326 | -76.90097 | 7441 ft | 307 kts | 37° |
| 2026-05-06 00:37 | 38.79064 | -76.88535 | 8212 ft | 309 kts | 30° |
| 2026-05-06 00:38 | 38.80896 | -76.87106 | 9023 ft | 309 kts | 27° |
| 2026-05-06 00:38 | 38.82728 | -76.85725 | 9838 ft | 309 kts | 27° |
| 2026-05-06 00:38 | 38.84605 | -76.84330 | 10459 ft | 317 kts | 27° |
| 2026-05-06 00:38 | 38.86520 | -76.82843 | 10845 ft | 334 kts | 31° |
| 2026-05-06 00:39 | 38.88418 | -76.80969 | 11258 ft | 351 kts | 37° |
| 2026-05-06 00:39 | 38.90276 | -76.78866 | 11710 ft | 365 kts | 40° |
| 2026-05-06 00:39 | 38.92192 | -76.76576 | 12185 ft | 379 kts | 41° |
| 2026-05-06 00:39 | 38.94122 | -76.74241 | 12548 ft | 395 kts | 41° |
| 2026-05-06 00:40 | 38.96176 | -76.71769 | 13029 ft | 406 kts | 40° |
| 2026-05-06 00:40 | 38.98270 | -76.69279 | 13363 ft | 421 kts | 40° |
| 2026-05-06 00:40 | 39.00480 | -76.66688 | 13721 ft | 436 kts | 40° |
| 2026-05-06 00:40 | 39.02705 | -76.64037 | 14489 ft | 439 kts | 42° |
| 2026-05-06 00:41 | 39.04903 | -76.61312 | 15123 ft | 446 kts | 43° |
| 2026-05-06 00:41 | 39.07105 | -76.58511 | 15826 ft | 451 kts | 43° |
| 2026-05-06 00:41 | 39.09195 | -76.55477 | 16440 ft | 457 kts | 52° |
| 2026-05-06 00:41 | 39.10866 | -76.51979 | 17046 ft | 463 kts | 64° |
| 2026-05-06 00:42 | 39.12091 | -76.48157 | 17807 ft | 463 kts | 72° |
| 2026-05-06 00:42 | 39.12952 | -76.44171 | 18414 ft | 467 kts | 78° |
| 2026-05-06 00:42 | 39.13578 | -76.40044 | 19002 ft | 472 kts | 82° |
| 2026-05-06 00:42 | 39.14072 | -76.35874 | 19613 ft | 476 kts | 83° |
| 2026-05-06 00:43 | 39.14518 | -76.31614 | 20267 ft | 480 kts | 84° |
| 2026-05-06 00:43 | 39.14933 | -76.27397 | 20896 ft | 483 kts | 85° |
| 2026-05-06 00:43 | 39.15343 | -76.23062 | 21317 ft | 492 kts | 85° |
| 2026-05-06 00:43 | 39.15758 | -76.18697 | 22120 ft | 491 kts | 84° |
| 2026-05-06 00:44 | 39.16194 | -76.14327 | 22684 ft | 495 kts | 84° |
| 2026-05-06 00:44 | 39.16643 | -76.09966 | 23049 ft | 503 kts | 84° |
| 2026-05-06 00:44 | 39.17124 | -76.05473 | 23655 ft | 505 kts | 83° |
| 2026-05-06 00:44 | 39.17639 | -76.00993 | 24209 ft | 508 kts | 81° |
| 2026-05-06 00:45 | 39.18459 | -75.96573 | 24681 ft | 513 kts | 73° |
| 2026-05-06 00:45 | 39.19729 | -75.92266 | 25131 ft | 517 kts | 65° |
| 2026-05-06 00:45 | 39.21418 | -75.88192 | 25740 ft | 516 kts | 58° |
| 2026-05-06 00:45 | 39.23397 | -75.84414 | 26610 ft | 509 kts | 51° |
| 2026-05-06 00:46 | 39.25606 | -75.80901 | 27514 ft | 501 kts | 46° |
| 2026-05-06 00:46 | 39.27938 | -75.77599 | 28285 ft | 497 kts | 44° |
| 2026-05-06 00:46 | 39.30318 | -75.74427 | 28938 ft | 494 kts | 43° |
| 2026-05-06 00:46 | 39.32706 | -75.71323 | 29574 ft | 492 kts | 42° |
| 2026-05-06 00:47 | 39.35108 | -75.68208 | 30205 ft | 490 kts | 42° |
| 2026-05-06 00:47 | 39.37519 | -75.65050 | 30887 ft | 486 kts | 42° |
| 2026-05-06 00:47 | 39.39864 | -75.61936 | 31571 ft | 483 kts | 42° |
| 2026-05-06 00:47 | 39.42197 | -75.58800 | 32173 ft | 481 kts | 42° |
| 2026-05-06 00:48 | 39.44508 | -75.55665 | 32689 ft | 480 kts | 42° |
| 2026-05-06 00:48 | 39.46795 | -75.52540 | 33156 ft | 480 kts | 42° |
| 2026-05-06 00:48 | 39.49096 | -75.49378 | 33622 ft | 480 kts | 41° |
| 2026-05-06 00:48 | 39.51388 | -75.46220 | 34102 ft | 479 kts | 41° |
| 2026-05-06 00:49 | 39.53667 | -75.43070 | 34526 ft | 478 kts | 41° |
| 2026-05-06 00:49 | 39.55918 | -75.39951 | 34920 ft | 477 kts | 41° |
| 2026-05-06 00:49 | 39.58173 | -75.36824 | 35328 ft | 475 kts | 41° |
| 2026-05-06 00:49 | 39.60426 | -75.33696 | 35668 ft | 474 kts | 41° |
| 2026-05-06 00:50 | 39.62650 | -75.30605 | 35997 ft | 473 kts | 41° |
| 2026-05-06 00:50 | 39.64888 | -75.27494 | 36388 ft | 471 kts | 41° |
| 2026-05-06 00:50 | 39.67122 | -75.24384 | 36787 ft | 469 kts | 41° |
| 2026-05-06 00:50 | 39.69343 | -75.21292 | 36936 ft | 472 kts | 41° |
| 2026-05-06 00:51 | 39.71556 | -75.18213 | 36928 ft | 472 kts | 41° |
| 2026-05-06 00:51 | 39.76040 | -75.11954 | 36926 ft | 469 kts | 41° |
| 2026-05-06 00:52 | 39.80473 | -75.05753 | 36918 ft | 470 kts | 41° |
| 2026-05-06 00:52 | 39.84925 | -74.99519 | 36922 ft | 470 kts | 41° |
| 2026-05-06 00:53 | 39.89364 | -74.93287 | 36911 ft | 473 kts | 41° |
| 2026-05-06 00:53 | 39.93816 | -74.87024 | 36924 ft | 472 kts | 41° |
| 2026-05-06 00:54 | 39.98268 | -74.80740 | 36917 ft | 470 kts | 41° |
| 2026-05-06 00:54 | 40.02665 | -74.74521 | 36927 ft | 470 kts | 41° |
| 2026-05-06 00:55 | 40.07124 | -74.68211 | 36922 ft | 473 kts | 41° |
| 2026-05-06 00:55 | 40.11555 | -74.61922 | 36921 ft | 470 kts | 41° |
| 2026-05-06 00:56 | 40.15977 | -74.55632 | 36926 ft | 473 kts | 41° |
| 2026-05-06 00:56 | 40.20482 | -74.49399 | 36924 ft | 467 kts | 38° |
| 2026-05-06 00:57 | 40.25189 | -74.43624 | 36902 ft | 472 kts | 40° |
| 2026-05-06 00:57 | 40.27381 | -74.40456 | 36714 ft | 467 kts | 44° |
| 2026-05-06 00:57 | 40.29469 | -74.37156 | 36085 ft | 469 kts | 46° |
| 2026-05-06 00:57 | 40.31486 | -74.33825 | 35370 ft | 473 kts | 47° |
| 2026-05-06 00:58 | 40.33493 | -74.30460 | 34539 ft | 478 kts | 47° |
| 2026-05-06 00:58 | 40.35542 | -74.27020 | 33613 ft | 482 kts | 48° |
| 2026-05-06 00:58 | 40.37603 | -74.23570 | 32662 ft | 485 kts | 48° |
| 2026-05-06 00:58 | 40.39693 | -74.20096 | 31737 ft | 487 kts | 48° |
| 2026-05-06 00:59 | 40.41787 | -74.16635 | 30772 ft | 490 kts | 49° |
| 2026-05-06 00:59 | 40.43933 | -74.13105 | 29745 ft | 493 kts | 49° |
| 2026-05-06 00:59 | 40.46058 | -74.09621 | 28745 ft | 496 kts | 49° |
| 2026-05-06 00:59 | 40.48213 | -74.06092 | 27712 ft | 499 kts | 49° |
| 2026-05-06 01:00 | 40.50366 | -74.02570 | 27001 ft | 495 kts | 49° |
| 2026-05-06 01:00 | 40.52515 | -73.99050 | 26906 ft | 492 kts | 49° |
| 2026-05-06 01:00 | 40.54669 | -73.95523 | 26914 ft | 500 kts | 49° |
| 2026-05-06 01:00 | 40.56859 | -73.91939 | 26910 ft | 505 kts | 49° |
| 2026-05-06 01:01 | 40.59050 | -73.88348 | 26908 ft | 504 kts | 49° |
| 2026-05-06 01:01 | 40.61225 | -73.84776 | 26909 ft | 502 kts | 49° |
| 2026-05-06 01:01 | 40.63421 | -73.81167 | 26917 ft | 503 kts | 49° |
| 2026-05-06 01:01 | 40.65583 | -73.77609 | 26911 ft | 502 kts | 49° |
| 2026-05-06 01:02 | 40.67757 | -73.74026 | 26917 ft | 501 kts | 49° |
| 2026-05-06 01:02 | 40.69947 | -73.70416 | 26915 ft | 502 kts | 49° |
| 2026-05-06 01:02 | 40.72122 | -73.66826 | 26911 ft | 503 kts | 49° |
| 2026-05-06 01:02 | 40.74283 | -73.63255 | 26906 ft | 503 kts | 49° |
| 2026-05-06 01:03 | 40.76457 | -73.59659 | 26910 ft | 503 kts | 49° |
| 2026-05-06 01:03 | 40.78638 | -73.56046 | 26911 ft | 501 kts | 49° |
| 2026-05-06 01:03 | 40.80785 | -73.52486 | 26916 ft | 502 kts | 49° |
| 2026-05-06 01:03 | 40.82976 | -73.48847 | 26916 ft | 503 kts | 49° |
| 2026-05-06 01:04 | 40.85126 | -73.45274 | 26915 ft | 505 kts | 49° |
| 2026-05-06 01:04 | 40.87347 | -73.41657 | 26911 ft | 503 kts | 47° |
| 2026-05-06 01:04 | 40.89594 | -73.38203 | 26911 ft | 500 kts | 46° |
| 2026-05-06 01:04 | 40.91941 | -73.34734 | 26909 ft | 504 kts | 45° |
| 2026-05-06 01:05 | 40.94273 | -73.31346 | 26914 ft | 501 kts | 45° |
| 2026-05-06 01:05 | 40.96621 | -73.27950 | 26919 ft | 501 kts | 45° |
| 2026-05-06 01:05 | 40.98972 | -73.24544 | 26915 ft | 501 kts | 45° |
| 2026-05-06 01:05 | 41.01291 | -73.21166 | 26906 ft | 502 kts | 45° |
| 2026-05-06 01:06 | 41.03633 | -73.17735 | 26916 ft | 502 kts | 46° |
| 2026-05-06 01:06 | 41.05966 | -73.14298 | 26913 ft | 503 kts | 45° |
| 2026-05-06 01:06 | 41.08298 | -73.10844 | 26907 ft | 501 kts | 46° |
| 2026-05-06 01:06 | 41.10592 | -73.07435 | 26907 ft | 501 kts | 46° |
| 2026-05-06 01:07 | 41.12900 | -73.03994 | 26915 ft | 501 kts | 45° |
| 2026-05-06 01:07 | 41.15213 | -73.00538 | 26909 ft | 502 kts | 46° |
| 2026-05-06 01:07 | 41.17492 | -72.97040 | 26910 ft | 504 kts | 48° |
| 2026-05-06 01:07 | 41.19629 | -72.93402 | 26913 ft | 502 kts | 51° |
| 2026-05-06 01:08 | 41.21623 | -72.89571 | 26917 ft | 504 kts | 55° |
| 2026-05-06 01:08 | 41.23455 | -72.85578 | 26912 ft | 505 kts | 58° |
| 2026-05-06 01:08 | 41.25140 | -72.81535 | 26912 ft | 507 kts | 60° |
| 2026-05-06 01:08 | 41.26767 | -72.77388 | 26912 ft | 506 kts | 60° |
| 2026-05-06 01:09 | 41.28343 | -72.73238 | 26915 ft | 507 kts | 61° |
| 2026-05-06 01:09 | 41.29901 | -72.69074 | 26921 ft | 505 kts | 62° |
| 2026-05-06 01:09 | 41.31455 | -72.64900 | 26928 ft | 505 kts | 61° |
| 2026-05-06 01:09 | 41.33022 | -72.60692 | 26927 ft | 505 kts | 61° |
| 2026-05-06 01:10 | 41.34574 | -72.56535 | 26769 ft | 497 kts | 61° |
| 2026-05-06 01:10 | 41.36084 | -72.52500 | 25944 ft | 497 kts | 61° |
| 2026-05-06 01:10 | 41.37631 | -72.48382 | 24811 ft | 501 kts | 62° |
| 2026-05-06 01:10 | 41.39180 | -72.44271 | 23986 ft | 498 kts | 62° |
| 2026-05-06 01:11 | 41.40731 | -72.40153 | 23308 ft | 493 kts | 62° |
| 2026-05-06 01:11 | 41.42256 | -72.36105 | 22589 ft | 489 kts | 62° |
| 2026-05-06 01:11 | 41.43751 | -72.32134 | 22003 ft | 482 kts | 62° |
| 2026-05-06 01:11 | 41.45245 | -72.28162 | 21254 ft | 480 kts | 63° |
| 2026-05-06 01:12 | 41.46733 | -72.24203 | 20587 ft | 475 kts | 63° |
| 2026-05-06 01:12 | 41.48198 | -72.20297 | 19889 ft | 471 kts | 63° |
| 2026-05-06 01:12 | 41.49632 | -72.16443 | 19204 ft | 467 kts | 63° |
| 2026-05-06 01:12 | 41.51050 | -72.12586 | 18574 ft | 462 kts | 64° |
| 2026-05-06 01:13 | 41.52450 | -72.08747 | 18316 ft | 457 kts | 63° |
| 2026-05-06 01:13 | 41.53833 | -72.04942 | 18080 ft | 462 kts | 64° |
| 2026-05-06 01:13 | 41.55233 | -72.01084 | 17831 ft | 459 kts | 64° |
| 2026-05-06 01:13 | 41.56586 | -71.97246 | 17580 ft | 458 kts | 65° |
| 2026-05-06 01:14 | 41.59000 | -71.89407 | 17081 ft | 456 kts | 69° |
| 2026-05-06 01:14 | 41.60129 | -71.85486 | 16833 ft | 452 kts | 69° |
| 2026-05-06 01:14 | 41.61241 | -71.81574 | 16580 ft | 454 kts | 69° |
| 2026-05-06 01:15 | 41.62347 | -71.77682 | 16319 ft | 450 kts | 69° |
| 2026-05-06 01:15 | 41.63469 | -71.73766 | 16057 ft | 445 kts | 69° |
| 2026-05-06 01:15 | 41.64559 | -71.69984 | 15802 ft | 431 kts | 69° |
| 2026-05-06 01:15 | 41.65619 | -71.66336 | 15553 ft | 417 kts | 68° |
| 2026-05-06 01:16 | 41.66654 | -71.62785 | 15307 ft | 405 kts | 68° |
| 2026-05-06 01:16 | 41.67669 | -71.59313 | 15060 ft | 393 kts | 68° |
| 2026-05-06 01:16 | 41.68650 | -71.55962 | 14810 ft | 383 kts | 69° |
| 2026-05-06 01:16 | 41.69600 | -71.52716 | 14559 ft | 373 kts | 68° |
| 2026-05-06 01:17 | 41.70526 | -71.49550 | 14316 ft | 364 kts | 68° |
| 2026-05-06 01:17 | 41.71436 | -71.46429 | 14068 ft | 356 kts | 69° |
| 2026-05-06 01:17 | 41.72363 | -71.43381 | 13819 ft | 354 kts | 65° |
| 2026-05-06 01:17 | 41.73454 | -71.40391 | 13582 ft | 362 kts | 61° |
| 2026-05-06 01:18 | 41.74690 | -71.37433 | 13337 ft | 365 kts | 58° |
| 2026-05-06 01:18 | 41.75967 | -71.34532 | 13096 ft | 363 kts | 58° |
| 2026-05-06 01:18 | 41.77248 | -71.31647 | 12851 ft | 362 kts | 59° |
| 2026-05-06 01:18 | 41.78530 | -71.28736 | 12604 ft | 361 kts | 59° |
| 2026-05-06 01:19 | 41.79790 | -71.25835 | 12363 ft | 360 kts | 59° |
| 2026-05-06 01:19 | 41.81033 | -71.22942 | 12118 ft | 359 kts | 59° |
| 2026-05-06 01:19 | 41.82261 | -71.20062 | 12049 ft | 356 kts | 60° |
| 2026-05-06 01:19 | 41.83496 | -71.17155 | 12047 ft | 361 kts | 59° |
| 2026-05-06 01:20 | 41.84724 | -71.14262 | 11946 ft | 361 kts | 60° |
| 2026-05-06 01:20 | 41.85948 | -71.11378 | 11854 ft | 356 kts | 59° |
| 2026-05-06 01:20 | 41.87193 | -71.08474 | 11616 ft | 359 kts | 59° |
| 2026-05-06 01:20 | 41.88441 | -71.05587 | 11370 ft | 355 kts | 59° |
| 2026-05-06 01:21 | 41.89664 | -71.02763 | 11127 ft | 352 kts | 59° |
| 2026-05-06 01:21 | 41.90897 | -70.99917 | 10873 ft | 352 kts | 59° |
| 2026-05-06 01:21 | 41.92122 | -70.97083 | 10628 ft | 352 kts | 59° |
| 2026-05-06 01:21 | 41.93344 | -70.94249 | 10372 ft | 349 kts | 59° |
| 2026-05-06 01:22 | 41.94560 | -70.91423 | 10116 ft | 349 kts | 59° |
| 2026-05-06 01:22 | 41.95769 | -70.88612 | 10047 ft | 346 kts | 59° |
| 2026-05-06 01:22 | 41.96973 | -70.85806 | 10037 ft | 347 kts | 59° |
| 2026-05-06 01:22 | 41.98161 | -70.83040 | 10046 ft | 347 kts | 59° |
| 2026-05-06 01:23 | 41.99376 | -70.80212 | 9987 ft | 348 kts | 59° |
| 2026-05-06 01:23 | 42.00599 | -70.77394 | 9723 ft | 347 kts | 57° |
| 2026-05-06 01:23 | 42.01982 | -70.74774 | 9479 ft | 345 kts | 49° |
| 2026-05-06 01:23 | 42.03539 | -70.72317 | 9234 ft | 344 kts | 45° |
| 2026-05-06 01:24 | 42.05148 | -70.69967 | 8985 ft | 342 kts | 44° |
| 2026-05-06 01:24 | 42.06762 | -70.67648 | 8738 ft | 342 kts | 44° |
| 2026-05-06 01:24 | 42.08370 | -70.65319 | 8486 ft | 341 kts | 45° |
| 2026-05-06 01:24 | 42.10038 | -70.63032 | 8201 ft | 340 kts | 39° |
| 2026-05-06 01:25 | 42.11965 | -70.61246 | 8037 ft | 331 kts | 19° |
| 2026-05-06 01:25 | 42.14117 | -70.60337 | 8049 ft | 328 kts | 7° |
| 2026-05-06 01:25 | 42.16369 | -70.59770 | 7950 ft | 328 kts | 3° |
| 2026-05-06 01:25 | 42.18632 | -70.59280 | 7554 ft | 327 kts | 3° |
| 2026-05-06 01:26 | 42.20842 | -70.58777 | 7175 ft | 325 kts | 4° |
| 2026-05-06 01:26 | 42.23085 | -70.58215 | 6765 ft | 326 kts | 4° |
| 2026-05-06 01:26 | 42.25293 | -70.57622 | 6335 ft | 326 kts | 5° |
| 2026-05-06 01:26 | 42.27520 | -70.56998 | 5905 ft | 325 kts | 5° |
| 2026-05-06 01:27 | 42.29704 | -70.56409 | 5504 ft | 321 kts | 2° |
| 2026-05-06 01:27 | 42.31913 | -70.56237 | 5096 ft | 309 kts | 345° |
| 2026-05-06 01:27 | 42.33837 | -70.57152 | 5023 ft | 284 kts | 317° |
| 2026-05-06 01:27 | 42.35242 | -70.58812 | 5021 ft | 259 kts | 304° |
| 2026-05-06 01:28 | 42.36464 | -70.60523 | 5019 ft | 243 kts | 304° |
| 2026-05-06 01:28 | 42.37606 | -70.62087 | 5008 ft | 227 kts | 302° |
| 2026-05-06 01:28 | 42.38534 | -70.63699 | 4822 ft | 210 kts | 291° |
| 2026-05-06 01:28 | 42.39248 | -70.65324 | 4649 ft | 196 kts | 290° |
| 2026-05-06 01:29 | 42.39957 | -70.66882 | 4391 ft | 192 kts | 292° |
| 2026-05-06 01:29 | 42.40699 | -70.68368 | 4116 ft | 193 kts | 293° |
| 2026-05-06 01:29 | 42.41463 | -70.69851 | 3873 ft | 193 kts | 293° |
| 2026-05-06 01:29 | 42.42232 | -70.71338 | 3619 ft | 193 kts | 293° |
| 2026-05-06 01:30 | 42.42997 | -70.72828 | 3370 ft | 192 kts | 293° |
| 2026-05-06 01:30 | 42.43758 | -70.74313 | 3111 ft | 192 kts | 293° |
| 2026-05-06 01:30 | 42.44516 | -70.75792 | 3002 ft | 188 kts | 293° |
| 2026-05-06 01:30 | 42.45263 | -70.77253 | 3002 ft | 192 kts | 292° |
| 2026-05-06 01:31 | 42.46021 | -70.78735 | 3003 ft | 191 kts | 292° |
| 2026-05-06 01:31 | 42.46780 | -70.80212 | 3004 ft | 189 kts | 292° |
| 2026-05-06 01:31 | 42.47532 | -70.81679 | 3003 ft | 190 kts | 292° |
| 2026-05-06 01:31 | 42.48278 | -70.83148 | 2998 ft | 191 kts | 292° |
| 2026-05-06 01:32 | 42.49039 | -70.84630 | 2991 ft | 185 kts | 292° |
| 2026-05-06 01:32 | 42.49751 | -70.86001 | 2992 ft | 172 kts | 291° |
| 2026-05-06 01:32 | 42.50425 | -70.87334 | 2995 ft | 172 kts | 291° |
| 2026-05-06 01:32 | 42.51096 | -70.88663 | 2988 ft | 172 kts | 292° |
| 2026-05-06 01:33 | 42.51746 | -70.90018 | 2984 ft | 167 kts | 285° |
| 2026-05-06 01:33 | 42.51965 | -70.91450 | 3006 ft | 150 kts | 254° |
| 2026-05-06 01:33 | 42.51561 | -70.92700 | 2985 ft | 147 kts | 234° |
| 2026-05-06 01:33 | 42.50856 | -70.93653 | 2871 ft | 140 kts | 217° |
| 2026-05-06 01:34 | 42.49902 | -70.93961 | 2385 ft | 151 kts | 191° |
| 2026-05-06 01:34 | 42.48909 | -70.94241 | 1998 ft | 143 kts | 209° |
| 2026-05-06 01:34 | 42.48004 | -70.94858 | 1986 ft | 151 kts | 208° |
| 2026-05-06 01:34 | 42.47024 | -70.95374 | 1991 ft | 142 kts | 204° |
| 2026-05-06 01:35 | 42.46145 | -70.95796 | 1987 ft | 130 kts | 206° |
| 2026-05-06 01:35 | 42.45251 | -70.96124 | 1991 ft | 134 kts | 201° |
| 2026-05-06 01:35 | 42.44411 | -70.96461 | 1769 ft | 120 kts | 208° |
| 2026-05-06 01:35 | 42.43676 | -70.96877 | 1504 ft | 115 kts | 206° |
| 2026-05-06 01:36 | 42.42900 | -70.97282 | 1252 ft | 120 kts | 205° |
| 2026-05-06 01:36 | 42.42116 | -70.97688 | 1070 ft | 126 kts | 205° |
| 2026-05-06 01:36 | 42.41282 | -70.98122 | 901 ft | 129 kts | 203° |
| 2026-05-06 01:36 | 42.40431 | -70.98555 | 707 ft | 135 kts | 202° |
| 2026-05-06 01:37 | 42.39545 | -70.99000 | 520 ft | 136 kts | 202° |
| 2026-05-06 01:37 | 42.38696 | -70.99424 | 333 ft | 127 kts | 202° |
| 2026-05-06 01:37 | 42.37848 | -70.99849 | 129 ft | 131 kts | 201° |
| 2026-05-06 01:37 | 42.36975 | -71.00275 | 20 ft | 127 kts | 200° |
| 2026-05-06 01:38 | 42.36331 | -71.00588 | 16 ft | 61 kts | 199° |
| 2026-05-06 01:38 | 42.36146 | -71.00756 | 16 ft | 20 kts | 262° |
| 2026-05-06 01:38 | 42.36179 | -71.00900 | 17 ft | 8 kts | 295° |
| 2026-05-06 01:38 | 42.36198 | -71.00957 | 18 ft | 5 kts | 292° |
| 2026-05-06 01:39 | 42.36212 | -71.01005 | 18 ft | 4 kts | 293° |
| 2026-05-06 01:39 | 42.36224 | -71.01038 | 19 ft | 2 kts | 294° |
| 2026-05-06 01:39 | 42.36232 | -71.01063 | 19 ft | 8 kts | 294° |
| 2026-05-06 01:39 | 42.36287 | -71.01208 | 19 ft | 18 kts | 300° |
| 2026-05-06 01:40 | 42.36351 | -71.01349 | 19 ft | 16 kts | 300° |
| 2026-05-06 01:40 | 42.36409 | -71.01439 | 19 ft | 9 kts | 341° |
| 2026-05-06 01:40 | 42.36462 | -71.01462 | 19 ft | 0 kts | 342° |
| 2026-05-06 01:40 | 42.36463 | -71.01463 | 19 ft | 0 kts | 342° |